Time;durP1;ratioP1;P1;durP2;ratioP2;P2;SDS_P1;SDS_P2;PMS_P1;PMS_P2;Temp;Humidity;BMP_temperature;BMP_pressure;BME280_temperature;BME280_humidity;BME280_pressure;Samples;Min_cycle;Max_cycle;Signal;HPM_P1;HPM_P2
2022/11/08 00:02:28;;;;;;;12.80;6.17;;;;;;;12.30;90.15;100488.22;5007996;28;20224;-63
2022/11/08 00:04:57;;;;;;;15.93;6.37;;;;;;;12.33;89.74;100485.22;5010531;28;20315;-63
2022/11/08 00:15:40;;;;;;;12.60;6.13;;;;;;;12.32;89.60;100480.91;5011864;28;20206;-63
2022/11/08 00:18:08;;;;;;;12.47;6.37;;;;;;;12.29;90.07;100480.41;5008845;28;20209;-63
2022/11/08 00:20:37;;;;;;;13.60;6.10;;;;;;;12.28;90.08;100474.25;5010985;28;20214;-65
2022/11/08 00:23:06;;;;;;;11.97;6.53;;;;;;;12.30;90.14;100472.28;5005406;28;20784;-63
2022/11/08 00:25:34;;;;;;;15.70;5.63;;;;;;;12.27;90.30;100469.91;5002723;28;20232;-63
2022/11/08 00:28:02;;;;;;;14.87;5.70;;;;;;;12.26;90.50;100459.44;5003635;28;20556;-62
2022/11/08 00:30:29;;;;;;;12.83;5.47;;;;;;;12.22;90.65;100464.25;5001709;28;20216;-61
2022/11/08 00:32:57;;;;;;;11.13;5.43;;;;;;;12.22;90.86;100461.59;5000997;28;20277;-62
2022/11/08 00:35:24;;;;;;;13.53;6.13;;;;;;;12.19;91.08;100472.53;5005983;28;20209;-63
2022/11/08 00:37:53;;;;;;;11.60;5.80;;;;;;;12.23;90.85;100470.38;5002472;28;20823;-64
2022/11/08 00:40:21;;;;;;;14.13;5.27;;;;;;;12.24;90.69;100472.88;5005206;28;20211;-64
2022/11/08 00:42:48;;;;;;;13.57;5.33;;;;;;;12.23;90.54;100463.25;5002794;28;20570;-63
2022/11/08 00:45:16;;;;;;;12.07;5.63;;;;;;;12.25;90.28;100468.41;5010196;28;20233;-63
2022/11/08 00:47:44;;;;;;;11.37;5.07;;;;;;;12.23;90.50;100470.38;4999566;28;20205;-63
2022/11/08 00:50:11;;;;;;;11.30;5.60;;;;;;;12.24;90.12;100469.38;5002335;28;21345;-63
2022/11/08 00:52:39;;;;;;;12.33;6.00;;;;;;;12.20;90.50;100458.25;5000460;28;20228;-63
2022/11/08 00:55:08;;;;;;;12.10;5.97;;;;;;;12.21;90.27;100448.47;5000477;28;20210;-63
2022/11/08 00:57:36;;;;;;;11.70;5.87;;;;;;;12.24;90.13;100450.78;4999360;28;20271;-63
2022/11/08 01:00:24;;;;;;;10.83;5.97;;;;;;;12.21;90.15;100451.13;5002138;28;21014;-64
2022/11/08 01:05:38;;;;;;;13.63;6.03;;;;;;;12.19;89.91;100459.25;5002626;28;20233;-63
2022/11/08 01:08:05;;;;;;;11.33;5.23;;;;;;;12.24;90.02;100448.97;5002056;28;20216;-63
2022/11/08 01:10:34;;;;;;;11.63;5.53;;;;;;;12.26;89.11;100454.97;4997479;28;20240;-62
2022/11/08 01:13:02;;;;;;;13.13;6.30;;;;;;;12.23;88.43;100447.28;4999735;28;20212;-62
2022/11/08 01:15:34;;;;;;;14.43;6.60;;;;;;;12.18;88.86;100456.75;5002958;28;20326;-63
2022/11/08 01:18:02;;;;;;;12.63;6.50;;;;;;;12.14;89.04;100450.91;5001862;28;20329;-63
2022/11/08 01:20:30;;;;;;;14.40;6.53;;;;;;;12.12;88.60;100442.28;4999353;28;20794;-63
2022/11/08 01:22:58;;;;;;;15.00;7.47;;;;;;;12.09;88.52;100442.56;5000538;28;20213;-62
2022/11/08 01:25:26;;;;;;;15.77;7.17;;;;;;;12.11;88.68;100437.09;5000862;28;20240;-62
2022/11/08 01:27:55;;;;;;;14.80;7.10;;;;;;;12.10;88.53;100433.63;5000679;28;20206;-62
2022/11/08 01:30:22;;;;;;;15.67;8.27;;;;;;;12.13;88.95;100424.50;5003162;28;20209;-62
2022/11/08 01:32:50;;;;;;;10.67;6.07;;;;;;;12.20;88.25;100425.53;5001925;28;20243;-62
2022/11/08 01:35:17;;;;;;;12.63;6.13;;;;;;;12.22;87.61;100420.88;4999765;28;20651;-62
2022/11/08 01:37:45;;;;;;;15.23;6.30;;;;;;;12.27;87.06;100419.41;5001916;28;20210;-63
2022/11/08 01:40:13;;;;;;;14.43;5.90;;;;;;;12.30;86.33;100419.09;5000438;28;20690;-63
2022/11/08 01:42:40;;;;;;;11.97;5.37;;;;;;;12.35;85.79;100421.25;4996544;28;20217;-63
2022/11/08 01:45:11;;;;;;;13.23;5.30;;;;;;;12.30;85.84;100410.28;5007133;28;20354;-63
2022/11/08 01:47:39;;;;;;;15.53;5.67;;;;;;;12.33;85.76;100418.75;5009482;28;20227;-62
2022/11/08 01:50:11;;;;;;;9.67;5.13;;;;;;;12.39;84.98;100402.19;5008104;28;20349;-63
2022/11/08 01:52:43;;;;;;;11.73;5.47;;;;;;;12.33;84.60;100402.81;5013971;28;20229;-63
2022/11/08 01:55:15;;;;;;;13.70;6.03;;;;;;;12.18;84.60;100409.72;5006879;28;20265;-63
2022/11/08 01:57:50;;;;;;;13.93;5.33;;;;;;;12.09;84.75;100405.38;5003315;28;20689;-63
2022/11/08 02:00:19;;;;;;;12.37;5.67;;;;;;;12.03;85.02;100403.34;5009894;28;20204;-63
2022/11/08 02:02:54;;;;;;;11.40;4.77;;;;;;;12.10;84.47;100401.72;5007213;28;20646;-64
2022/11/08 02:05:27;;;;;;;10.70;5.40;;;;;;;12.14;83.39;100391.63;5004771;28;20278;-63
2022/11/08 02:07:59;;;;;;;12.83;5.13;;;;;;;12.07;83.46;100391.41;5008234;28;20221;-62
2022/11/08 02:10:30;;;;;;;11.50;5.60;;;;;;;11.91;83.79;100388.66;5006561;28;20920;-63
2022/11/08 02:12:58;;;;;;;10.87;6.33;;;;;;;11.96;83.95;100384.53;5004892;28;20213;-63
2022/11/08 02:15:32;;;;;;;11.17;5.27;;;;;;;11.96;83.61;100399.69;5009752;28;20211;-64
2022/11/08 02:18:00;;;;;;;11.20;5.60;;;;;;;11.88;83.61;100394.28;5003249;28;20212;-64
2022/11/08 02:20:28;;;;;;;11.97;5.63;;;;;;;11.91;83.75;100393.97;5001180;28;20642;-64
2022/11/08 02:23:02;;;;;;;9.97;5.83;;;;;;;11.88;84.83;100391.63;5000185;28;20640;-63
2022/11/08 02:25:31;;;;;;;14.43;5.70;;;;;;;11.88;84.80;100378.34;5005286;28;20631;-63
2022/11/08 02:27:59;;;;;;;10.37;5.17;;;;;;;11.80;85.28;100387.13;5008577;28;20213;-63
2022/11/08 02:30:32;;;;;;;10.53;5.00;;;;;;;11.81;85.48;100386.13;4999817;28;20212;-63
2022/11/08 02:33:00;;;;;;;10.70;5.50;;;;;;;11.83;85.08;100388.63;5001093;28;20209;-63
2022/11/08 02:35:27;;;;;;;13.20;5.30;;;;;;;11.80;84.60;100386.28;5008939;28;20205;-63
2022/11/08 02:37:55;;;;;;;10.43;5.37;;;;;;;11.80;84.54;100386.28;5000139;28;20209;-63
2022/11/08 02:40:23;;;;;;;9.63;5.20;;;;;;;11.74;83.70;100384.22;4997574;28;20205;-64
2022/11/08 02:42:52;;;;;;;11.50;5.30;;;;;;;11.85;83.57;100381.34;5001866;28;20212;-63
2022/11/08 02:45:19;;;;;;;12.50;5.90;;;;;;;11.86;83.31;100375.88;5005146;28;20272;-63
2022/11/08 02:47:47;;;;;;;12.47;5.83;;;;;;;11.81;83.27;100374.66;4996940;28;20732;-63
2022/11/08 02:50:15;;;;;;;8.23;5.77;;;;;;;11.69;84.03;100377.59;4996816;28;21167;-63
2022/11/08 02:52:42;;;;;;;13.10;5.90;;;;;;;11.67;84.21;100370.75;4999037;28;20217;-63
2022/11/08 02:55:10;;;;;;;10.80;5.30;;;;;;;11.64;84.22;100371.06;4997666;28;20204;-63
2022/11/08 02:57:38;;;;;;;10.77;5.50;;;;;;;11.58;84.27;100359.25;4997997;28;20217;-63
2022/11/08 03:00:08;;;;;;;11.43;5.40;;;;;;;11.54;84.39;100367.66;5001089;28;20732;-63
2022/11/08 03:02:36;;;;;;;13.17;5.40;;;;;;;11.51;84.55;100368.84;4999915;28;20731;-63
2022/11/08 03:05:04;;;;;;;8.23;5.30;;;;;;;11.54;84.17;100365.84;5000777;28;20209;-63
2022/11/08 03:07:32;;;;;;;11.17;5.43;;;;;;;11.55;84.01;100364.03;4998785;28;20638;-63
2022/11/08 03:09:59;;;;;;;9.87;4.83;;;;;;;11.53;83.63;100366.00;4999588;28;20251;-63
2022/11/08 03:12:27;;;;;;;11.27;5.73;;;;;;;11.50;83.34;100351.25;5001339;28;20213;-63
2022/11/08 03:14:55;;;;;;;14.13;5.40;;;;;;;11.47;83.51;100361.31;5005024;28;20217;-63
2022/11/08 03:17:24;;;;;;;14.13;5.60;;;;;;;11.46;83.20;100360.50;4998142;28;20252;-63
2022/11/08 03:19:52;;;;;;;12.63;4.83;;;;;;;11.44;82.90;100354.50;4997840;28;20217;-63
2022/11/08 03:22:20;;;;;;;8.07;4.70;;;;;;;11.39;83.17;100362.13;4999218;28;20221;-63
2022/11/08 03:24:47;;;;;;;9.97;5.07;;;;;;;11.39;82.97;100364.75;4999344;28;20271;-63
2022/11/08 03:27:17;;;;;;;10.50;4.93;;;;;;;11.36;82.94;100362.41;4998498;28;20228;-63
2022/11/08 03:29:45;;;;;;;10.33;4.87;;;;;;;11.35;83.13;100352.78;4999076;28;20212;-63
2022/11/08 03:32:14;;;;;;;8.63;4.87;;;;;;;11.34;83.07;100353.78;5001086;28;20216;-63
2022/11/08 03:34:43;;;;;;;8.20;5.03;;;;;;;11.31;82.64;100346.13;4997765;28;20209;-63
2022/11/08 03:37:10;;;;;;;12.47;5.23;;;;;;;11.38;82.35;100338.38;5003475;28;20827;-63
2022/11/08 03:39:38;;;;;;;8.50;4.87;;;;;;;11.46;81.41;100343.72;4996144;28;20238;-64
2022/11/08 03:42:06;;;;;;;11.17;4.97;;;;;;;11.48;81.30;100331.13;5000025;28;20957;-63
2022/11/08 03:44:34;;;;;;;9.50;5.03;;;;;;;11.36;81.07;100327.91;5000997;28;20221;-63
2022/11/08 03:47:02;;;;;;;8.80;5.43;;;;;;;11.29;81.39;100332.19;4999916;28;20228;-63
2022/11/08 03:49:29;;;;;;;10.90;5.40;;;;;;;11.33;80.93;100325.59;5000050;28;20668;-63
2022/11/08 03:51:58;;;;;;;10.70;4.97;;;;;;;11.37;79.97;100320.78;5002354;28;20289;-63
2022/11/08 03:54:26;;;;;;;7.97;4.90;;;;;;;11.28;79.95;100319.88;5015265;28;20208;-62
2022/11/08 03:56:54;;;;;;;8.73;5.43;;;;;;;11.22;80.54;100317.88;5008165;28;20213;-62
2022/11/08 03:59:21;;;;;;;11.70;5.40;;;;;;;11.15;80.86;100322.13;5004734;28;20208;-63
2022/11/08 04:01:49;;;;;;;10.87;5.03;;;;;;;11.14;80.49;100310.69;5010639;28;20216;-62
2022/11/08 04:04:17;;;;;;;12.43;5.37;;;;;;;11.16;80.30;100321.16;5013973;28;20247;-62
2022/11/08 04:06:44;;;;;;;10.10;4.80;;;;;;;11.05;80.60;100318.75;5012621;28;20783;-63
2022/11/08 04:09:13;;;;;;;8.53;4.90;;;;;;;10.99;80.81;100319.38;5006334;28;20297;-62
2022/11/08 04:17:17;;;;;;;8.17;4.90;;;;;;;10.78;81.48;100317.88;5014793;28;20210;-62
2022/11/08 04:22:30;;;;;;;9.70;5.13;;;;;;;10.71;81.60;100303.56;4993693;28;20207;-64
2022/11/08 04:24:59;;;;;;;11.53;5.00;;;;;;;10.77;81.50;100300.28;4995194;28;20232;-62
2022/11/08 04:27:27;;;;;;;11.40;5.23;;;;;;;10.80;81.10;100305.28;4997023;28;20240;-62
2022/11/08 04:29:54;;;;;;;12.67;4.87;;;;;;;10.77;80.72;100300.28;4993552;28;20250;-62
2022/11/08 04:32:22;;;;;;;8.70;4.80;;;;;;;10.74;80.39;100305.88;5001127;28;20220;-62
2022/11/08 04:34:50;;;;;;;8.60;4.50;;;;;;;10.76;80.55;100298.63;5002837;28;20210;-63
2022/11/08 04:37:17;;;;;;;10.13;3.90;;;;;;;10.80;80.97;100304.47;4998618;28;20945;-64
2022/11/08 04:39:45;;;;;;;10.53;5.10;;;;;;;10.73;80.60;100298.91;4995480;28;20271;-63
2022/11/08 04:42:14;;;;;;;7.93;4.80;;;;;;;10.64;80.99;100301.69;4998179;28;20213;-62
2022/11/08 04:44:42;;;;;;;11.33;5.43;;;;;;;10.60;81.30;100309.09;5003357;28;20674;-63
2022/11/08 04:47:09;;;;;;;10.43;5.13;;;;;;;10.55;81.28;100300.78;4997392;28;20233;-63
2022/11/08 04:49:37;;;;;;;11.17;5.20;;;;;;;10.56;81.25;100297.94;5000678;28;20215;-63
2022/11/08 04:52:05;;;;;;;11.87;5.00;;;;;;;10.58;81.09;100300.44;4999045;28;20211;-63
2022/11/08 04:54:32;;;;;;;7.87;4.23;;;;;;;10.52;81.15;100285.16;5000514;28;20214;-65
2022/11/08 04:57:00;;;;;;;9.03;5.07;;;;;;;10.66;80.64;100294.38;5001062;28;21435;-63
2022/11/08 04:59:29;;;;;;;9.00;4.53;;;;;;;10.62;80.52;100291.22;4996179;28;20215;-64
2022/11/08 05:01:56;;;;;;;9.77;4.50;;;;;;;10.58;80.91;100281.88;5000670;28;20203;-62
2022/11/08 05:04:24;;;;;;;7.50;4.70;;;;;;;10.59;80.78;100280.06;5005287;28;20587;-63
2022/11/08 05:06:52;;;;;;;9.47;4.57;;;;;;;10.62;80.37;100280.59;5003223;28;20256;-64
2022/11/08 05:09:20;;;;;;;10.07;4.97;;;;;;;10.71;79.93;100279.69;4993512;28;20287;-62
2022/11/08 05:11:47;;;;;;;8.23;3.70;;;;;;;10.67;80.22;100278.31;4997836;28;20209;-63
2022/11/08 05:14:15;;;;;;;8.37;3.77;;;;;;;10.69;80.40;100281.66;5000199;28;20218;-62
2022/11/08 05:16:44;;;;;;;6.63;3.67;;;;;;;10.65;80.46;100279.44;5000094;28;20214;-62
2022/11/08 05:19:12;;;;;;;11.10;4.00;;;;;;;10.61;79.74;100267.50;4998234;28;20214;-62
2022/11/08 05:24:25;;;;;;;7.80;4.17;;;;;;;10.41;81.13;100272.13;4998838;28;20221;-63
2022/11/08 05:26:53;;;;;;;10.13;4.30;;;;;;;10.30;82.04;100267.03;4999840;28;20245;-62
2022/11/08 05:29:20;;;;;;;14.40;4.30;;;;;;;10.19;82.62;100268.13;4999053;28;21901;-62
2022/11/08 05:31:49;;;;;;;7.47;4.27;;;;;;;10.27;82.81;100264.72;4996548;28;20329;-62
2022/11/08 05:34:17;;;;;;;12.90;4.13;;;;;;;10.38;82.29;100265.31;4996615;28;20337;-63
2022/11/08 05:36:44;;;;;;;13.53;4.27;;;;;;;10.50;81.59;100266.75;4996366;28;20679;-62
2022/11/08 05:39:12;;;;;;;8.40;4.10;;;;;;;10.44;80.63;100261.22;4993457;28;20212;-62
2022/11/08 05:41:40;;;;;;;8.77;4.50;;;;;;;10.19;81.61;100262.81;4998346;28;20237;-62
2022/11/08 05:44:08;;;;;;;11.23;4.27;;;;;;;10.11;82.48;100252.13;5000800;28;20693;-62
2022/11/08 05:46:36;;;;;;;10.30;4.20;;;;;;;10.16;82.92;100248.00;5000703;28;20220;-62
2022/11/08 05:49:05;;;;;;;9.20;4.20;;;;;;;10.24;82.62;100249.09;4998610;28;20215;-62
2022/11/08 05:51:33;;;;;;;10.07;4.20;;;;;;;10.22;82.78;100248.41;5000734;28;20273;-62
2022/11/08 05:54:00;;;;;;;7.77;4.40;;;;;;;10.13;82.88;100237.72;5005556;28;20503;-63
2022/11/08 05:56:28;;;;;;;8.87;4.60;;;;;;;10.03;83.35;100242.25;4999331;28;20263;-63
2022/11/08 05:58:56;;;;;;;9.73;4.37;;;;;;;9.98;83.59;100239.22;4999712;28;20273;-64
2022/11/08 06:01:24;;;;;;;9.93;4.23;;;;;;;9.95;84.04;100233.38;4999736;28;20209;-64
2022/11/08 06:03:51;;;;;;;6.97;3.77;;;;;;;9.89;83.96;100245.41;4999227;28;20221;-64
2022/11/08 06:06:21;;;;;;;9.33;4.23;;;;;;;9.80;84.84;100225.13;4999284;28;20209;-62
2022/11/08 06:08:50;;;;;;;7.87;3.63;;;;;;;9.78;85.10;100233.19;5000238;28;20240;-63
2022/11/08 06:11:22;;;;;;;8.47;3.90;;;;;;;9.73;85.38;100232.81;4998862;28;20209;-63
2022/11/08 06:13:50;;;;;;;11.97;4.30;;;;;;;9.65;85.60;100239.84;5000034;28;20213;-62
2022/11/08 06:16:19;;;;;;;7.50;4.07;;;;;;;9.72;86.39;100240.91;4997538;28;20209;-63
2022/11/08 06:18:47;;;;;;;9.67;3.90;;;;;;;9.92;85.43;100236.34;4998541;28;20198;-64
2022/11/08 06:21:17;;;;;;;6.50;3.60;;;;;;;10.03;84.27;100244.06;4992700;28;20232;-64
2022/11/08 06:23:46;;;;;;;11.27;4.40;;;;;;;9.95;83.66;100234.22;4995794;28;20216;-64
2022/11/08 06:26:13;;;;;;;7.70;3.87;;;;;;;9.91;83.87;100253.22;4999781;28;20221;-65
2022/11/08 06:28:41;;;;;;;8.10;3.77;;;;;;;9.94;84.18;100263.53;4995583;28;22162;-63
2022/11/08 06:31:09;;;;;;;11.97;6.20;;;;;;;10.14;83.52;100260.56;5003123;28;20209;-63
2022/11/08 06:33:36;;;;;;;9.30;4.97;;;;;;;10.35;82.63;100254.19;4999421;28;20250;-63
2022/11/08 06:36:06;;;;;;;8.07;3.93;;;;;;;10.39;81.88;100253.72;4995896;28;20211;-63
2022/11/08 06:38:33;;;;;;;10.10;4.53;;;;;;;10.52;81.41;100248.03;4993840;28;20209;-63
2022/11/08 06:41:03;;;;;;;8.03;4.47;;;;;;;10.45;80.57;100257.59;4994737;28;20206;-64
2022/11/08 06:43:31;;;;;;;13.60;4.20;;;;;;;10.42;81.52;100252.59;4998466;28;20209;-64
2022/11/08 06:46:00;;;;;;;6.43;3.90;;;;;;;10.41;80.95;100261.53;4995345;28;20875;-64
2022/11/08 06:48:28;;;;;;;7.97;4.00;;;;;;;10.35;81.67;100267.44;4993257;28;20226;-63
2022/11/08 06:51:02;;;;;;;7.70;3.73;;;;;;;10.33;82.52;100261.44;4995080;28;20214;-63
2022/11/08 06:53:30;;;;;;;10.67;4.27;;;;;;;10.39;82.37;100258.19;4991930;28;20226;-63
2022/11/08 06:55:58;;;;;;;8.33;4.73;;;;;;;10.43;81.59;100259.56;4993859;28;20214;-63
2022/11/08 06:58:27;;;;;;;12.83;4.17;;;;;;;10.38;81.70;100259.19;4993754;28;20215;-63
2022/11/08 07:00:55;;;;;;;7.67;3.50;;;;;;;10.31;82.06;100260.75;4995071;28;20211;-63
2022/11/08 07:03:23;;;;;;;7.50;3.77;;;;;;;10.17;82.69;100262.97;4994490;28;20542;-63
2022/11/08 07:05:50;;;;;;;7.37;3.93;;;;;;;10.11;83.17;100266.16;4995621;28;20210;-62
2022/11/08 07:08:18;;;;;;;7.70;3.90;;;;;;;10.05;84.13;100260.63;4991655;28;20230;-62
2022/11/08 07:10:50;;;;;;;7.07;4.00;;;;;;;9.96;84.68;100248.28;5004150;28;20603;-60
2022/11/08 07:13:18;;;;;;;7.60;3.87;;;;;;;10.01;84.40;100252.19;4999032;28;20213;-60
2022/11/08 07:15:48;;;;;;;9.10;3.63;;;;;;;9.97;85.16;100250.78;5001669;28;20205;-61
2022/11/08 07:18:17;;;;;;;6.03;3.40;;;;;;;9.98;85.04;100254.28;4997399;28;20209;-63
2022/11/08 07:20:45;;;;;;;10.97;4.43;;;;;;;9.96;85.47;100251.78;5002021;28;20280;-61
2022/11/08 07:23:13;;;;;;;11.43;4.20;;;;;;;9.95;85.86;100250.09;5003030;28;20220;-61
2022/11/08 07:25:41;;;;;;;11.93;3.73;;;;;;;9.96;85.95;100253.59;5001068;28;20217;-62
2022/11/08 07:28:14;;;;;;;10.27;3.97;;;;;;;10.01;86.07;100265.41;5002092;28;20244;-60
2022/11/08 07:30:42;;;;;;;9.73;3.73;;;;;;;10.02;85.34;100255.66;5000461;28;20207;-62
2022/11/08 07:33:11;;;;;;;8.20;4.40;;;;;;;10.04;85.25;100258.97;5006862;28;20606;-62
2022/11/08 07:35:39;;;;;;;11.50;4.80;;;;;;;10.22;85.10;100266.97;4999718;28;20455;-62
2022/11/08 07:38:07;;;;;;;8.93;4.60;;;;;;;10.42;84.51;100274.63;5012725;28;20509;-61
2022/11/08 07:40:35;;;;;;;8.17;4.13;;;;;;;10.45;83.89;100271.69;5014742;28;20216;-62
2022/11/08 07:43:03;;;;;;;7.07;3.33;;;;;;;10.55;82.97;100268.97;5015901;28;20202;-62
2022/11/08 07:45:40;;;;;;;7.00;3.77;;;;;;;10.74;82.05;100278.53;5016608;28;20600;-62
2022/11/08 07:48:09;;;;;;;6.27;3.80;;;;;;;10.84;81.25;100285.41;5013678;28;20837;-62
2022/11/08 07:50:41;;;;;;;10.17;3.93;;;;;;;11.02;80.35;100287.19;5012338;28;20278;-62
2022/11/08 07:53:10;;;;;;;6.43;3.40;;;;;;;11.13;79.43;100286.94;5012472;28;20328;-62
2022/11/08 07:55:40;;;;;;;8.50;3.60;;;;;;;11.26;78.68;100292.66;5012625;28;20216;-62
2022/11/08 07:58:09;;;;;;;6.23;3.43;;;;;;;11.35;78.48;100294.38;5010099;28;20219;-62
2022/11/08 08:00:39;;;;;;;9.00;3.70;;;;;;;11.48;77.91;100297.44;5014395;28;20213;-61
2022/11/08 08:03:09;;;;;;;10.33;4.10;;;;;;;11.56;77.32;100292.19;5021685;28;20206;-62
2022/11/08 08:05:39;;;;;;;7.67;3.87;;;;;;;11.57;77.10;100283.22;5014443;28;20238;-61
2022/11/08 08:08:08;;;;;;;8.83;4.20;;;;;;;11.59;76.89;100273.28;5016410;28;20235;-63
2022/11/08 08:10:37;;;;;;;14.63;4.30;;;;;;;11.47;77.36;100290.47;5000652;28;20250;-64
2022/11/08 08:13:05;;;;;;;12.27;4.10;;;;;;;11.40;78.06;100278.81;5008266;28;20627;-61
2022/11/08 08:15:33;;;;;;;7.23;4.00;;;;;;;11.36;78.51;100285.44;5010578;28;20208;-63
2022/11/08 08:18:01;;;;;;;9.17;4.20;;;;;;;11.36;78.91;100289.91;5008216;28;20208;-60
2022/11/08 08:20:30;;;;;;;7.87;3.73;;;;;;;11.35;79.13;100298.84;5005656;28;20681;-63
2022/11/08 08:22:58;;;;;;;9.80;3.77;;;;;;;11.36;79.59;100301.34;5004566;28;20212;-64
2022/11/08 08:25:27;;;;;;;12.83;4.63;;;;;;;11.45;79.89;100308.38;5010370;28;20223;-64
2022/11/08 08:27:57;;;;;;;8.50;4.50;;;;;;;11.63;79.41;100303.81;5003675;28;20222;-64
2022/11/08 08:30:25;;;;;;;9.93;4.27;;;;;;;11.83;78.17;100304.44;5008882;28;20624;-63
2022/11/08 08:33:00;;;;;;;7.53;3.83;;;;;;;12.01;77.30;100293.72;5008706;28;20217;-64
2022/11/08 08:35:48;;;;;;;7.53;3.70;;;;;;;12.21;76.38;100297.78;5007802;28;20245;-64
2022/11/08 08:38:15;;;;;;;13.97;4.47;;;;;;;12.31;75.78;100285.13;5008668;28;20209;-64
2022/11/08 08:40:44;;;;;;;8.87;3.77;;;;;;;12.29;75.72;100295.13;5005445;28;20209;-64
2022/11/08 08:43:12;;;;;;;10.23;4.40;;;;;;;12.38;75.34;100296.81;5010896;28;20214;-65
2022/11/08 08:45:40;;;;;;;6.53;3.97;;;;;;;12.49;75.13;100286.84;5017312;28;20217;-65
2022/11/08 08:48:08;;;;;;;9.77;4.07;;;;;;;12.47;75.01;100292.31;5009043;28;20209;-65
2022/11/08 08:50:36;;;;;;;7.17;3.67;;;;;;;12.50;75.27;100288.47;5008310;28;20212;-65
2022/11/08 08:53:05;;;;;;;9.60;3.83;;;;;;;12.47;75.42;100291.50;5004698;28;20252;-64
2022/11/08 08:55:35;;;;;;;7.53;3.37;;;;;;;12.54;75.35;100281.84;5010954;28;20262;-63
2022/11/08 08:58:04;;;;;;;7.57;3.53;;;;;;;13.38;73.13;100281.47;5009004;28;20206;-64
2022/11/08 09:00:32;;;;;;;6.87;3.77;;;;;;;15.04;66.64;100281.81;5010417;28;20615;-64
2022/11/08 09:03:20;;;;;;;5.93;3.47;;;;;;;17.07;58.97;100276.41;5006091;28;20290;-64
2022/11/08 09:05:48;;;;;;;10.63;3.87;;;;;;;18.15;53.38;100276.63;5006414;28;20275;-63
2022/11/08 09:08:15;;;;;;;4.93;2.93;;;;;;;18.13;52.29;100277.84;5013518;28;20220;-63
2022/11/08 09:10:43;;;;;;;9.23;3.67;;;;;;;17.33;53.56;100281.97;5010627;28;20232;-63
2022/11/08 09:13:12;;;;;;;5.93;3.27;;;;;;;16.93;55.29;100288.91;5012538;28;20220;-64
2022/11/08 09:15:40;;;;;;;9.13;4.07;;;;;;;17.04;56.00;100291.06;5009280;28;20240;-64
2022/11/08 09:18:08;;;;;;;11.67;3.73;;;;;;;18.67;51.97;100285.84;5008330;28;21888;-61
2022/11/08 09:20:36;;;;;;;9.93;3.30;;;;;;;18.87;50.14;100280.50;5011424;28;20296;-63
2022/11/08 09:23:04;;;;;;;5.57;3.23;;;;;;;19.24;49.54;100295.16;5009199;28;20311;-63
2022/11/08 09:25:31;;;;;;;9.57;3.70;;;;;;;19.60;48.71;100284.78;5006775;28;20435;-63
2022/11/08 09:27:59;;;;;;;7.63;3.43;;;;;;;20.88;46.32;100291.78;5010508;28;20216;-62
2022/11/08 09:30:28;;;;;;;6.90;3.30;;;;;;;21.77;44.09;100282.44;5004453;28;20628;-62
2022/11/08 09:32:56;;;;;;;5.90;3.60;;;;;;;23.18;40.60;100274.56;5011535;28;20213;-62
2022/11/08 09:35:29;;;;;;;9.67;3.80;;;;;;;24.38;38.40;100258.44;5006184;28;20229;-63
2022/11/08 09:37:58;;;;;;;8.37;3.23;;;;;;;24.33;38.27;100262.94;5005466;28;20209;-64
2022/11/08 09:40:31;;;;;;;8.53;3.40;;;;;;;23.69;39.07;100261.38;5014078;28;20213;-64
2022/11/08 09:43:06;;;;;;;4.47;2.73;;;;;;;22.29;41.66;100264.75;5010557;28;20278;-64
2022/11/08 09:45:41;;;;;;;8.15;3.13;;;;;;;21.00;44.41;100273.03;5008249;28;20213;-62
2022/11/08 09:48:25;;;;;;;9.30;3.60;;;;;;;20.10;46.81;100268.84;5009857;28;20217;-64
2022/11/08 09:50:55;;;;;;;7.28;3.80;;;;;;;19.34;49.12;100280.25;5008424;28;20724;-63
2022/11/08 09:53:33;;;;;;;7.53;3.47;;;;;;;18.87;50.62;100275.13;5006338;28;20208;-63
2022/11/08 09:56:06;;;;;;;6.68;3.08;;;;;;;18.54;51.98;100275.06;5007110;28;20232;-63
2022/11/08 09:58:37;;;;;;;6.07;3.30;;;;;;;18.28;52.74;100275.84;5006991;28;20220;-64
2022/11/08 10:01:10;;;;;;;4.32;2.83;;;;;;;18.40;52.28;100268.84;5015321;28;20208;-64
2022/11/08 10:03:39;;;;;;;5.57;2.87;;;;;;;19.30;50.05;100270.13;5012242;28;20209;-65
2022/11/08 10:06:29;;;;;;;5.33;3.20;;;;;;;20.11;47.98;100265.94;5015917;28;20213;-62
2022/11/08 10:09:07;;;;;;;9.07;3.33;;;;;;;20.77;46.31;100259.31;5005819;28;20233;-64
2022/11/08 10:11:53;;;;;;;7.33;2.83;;;;;;;23.10;41.49;100256.00;5006908;28;20216;-64
2022/11/08 10:14:39;;;;;;;7.03;3.57;;;;;;;25.20;37.59;100240.81;5010135;28;20205;-63
2022/11/08 10:17:34;;;;;;;7.93;2.90;;;;;;;27.21;34.03;100246.78;5011617;28;20209;-65
2022/11/08 10:20:16;;;;;;;7.70;3.22;;;;;;;28.48;31.78;100233.69;5007416;28;20213;-62
2022/11/08 10:22:52;;;;;;;5.75;2.53;;;;;;;26.93;33.61;100233.53;5018346;28;20935;-63
2022/11/08 10:25:32;;;;;;;5.95;3.13;;;;;;;24.43;36.92;100251.47;5008331;28;20209;-63
2022/11/08 10:28:03;;;;;;;7.55;2.78;;;;;;;22.46;41.02;100254.09;5011977;28;21891;-64
2022/11/08 10:30:35;;;;;;;5.63;2.80;;;;;;;21.67;42.85;100252.44;5010983;28;20685;-65
2022/11/08 10:33:16;;;;;;;8.30;3.00;;;;;;;21.22;44.10;100241.09;5006600;28;20206;-64
2022/11/08 10:35:48;;;;;;;4.95;2.55;;;;;;;21.45;44.09;100243.16;5008623;28;20209;-63
2022/11/08 10:38:19;;;;;;;5.43;2.63;;;;;;;22.01;43.03;100242.91;5004449;28;20205;-66
2022/11/08 10:40:56;;;;;;;5.70;2.67;;;;;;;21.71;43.01;100243.69;5012053;28;20258;-64
2022/11/08 10:43:32;;;;;;;5.13;2.50;;;;;;;20.97;44.83;100246.50;5010286;28;20974;-64
2022/11/08 10:46:00;;;;;;;8.13;2.88;;;;;;;20.51;45.72;100247.69;5013091;28;20205;-64
2022/11/08 10:48:34;;;;;;;7.10;3.17;;;;;;;20.06;46.48;100243.38;5008175;28;20228;-63
2022/11/08 10:51:01;;;;;;;6.28;2.80;;;;;;;19.90;46.29;100244.72;5013319;28;20226;-63
2022/11/08 10:53:31;;;;;;;6.78;2.60;;;;;;;20.56;45.44;100245.19;5007831;28;20221;-64
2022/11/08 10:56:00;;;;;;;6.47;2.67;;;;;;;21.84;43.06;100233.75;5009031;28;20255;-64
2022/11/08 10:58:32;;;;;;;7.78;2.53;;;;;;;23.77;39.13;100236.63;5006567;28;20213;-65
2022/11/08 11:01:01;;;;;;;7.85;2.80;;;;;;;24.82;37.53;100223.38;5007879;28;20654;-64
2022/11/08 11:03:31;;;;;;;4.72;2.40;;;;;;;26.21;35.29;100220.38;5010578;28;20207;-63
2022/11/08 11:05:59;;;;;;;3.78;2.13;;;;;;;27.10;33.63;100217.84;5009205;28;20220;-64
2022/11/08 11:08:27;;;;;;;7.00;2.83;;;;;;;26.98;33.09;100219.16;5004843;28;20233;-64
2022/11/08 11:10:59;;;;;;;3.72;2.35;;;;;;;26.18;34.00;100210.00;5008010;28;20323;-63
2022/11/08 11:13:27;;;;;;;5.30;2.80;;;;;;;25.06;35.25;100208.63;5005657;28;20208;-64
2022/11/08 11:16:01;;;;;;;5.97;2.47;;;;;;;24.91;35.83;100208.38;5013801;28;20220;-64
2022/11/08 11:18:33;;;;;;;5.68;2.53;;;;;;;24.31;36.46;100206.28;5009947;28;20220;-65
2022/11/08 11:21:04;;;;;;;4.38;2.38;;;;;;;23.55;37.50;100209.41;5015015;28;20216;-64
2022/11/08 11:23:34;;;;;;;7.68;2.50;;;;;;;22.81;38.88;100206.38;5007709;28;20248;-64
2022/11/08 11:26:03;;;;;;;3.97;2.15;;;;;;;22.38;40.12;100205.81;5016822;28;20212;-63
2022/11/08 11:28:30;;;;;;;5.63;2.22;;;;;;;22.21;40.33;100204.81;5012688;28;20205;-64
2022/11/08 11:31:00;;;;;;;9.13;2.88;;;;;;;21.45;41.05;100198.13;5019699;28;20225;-66
2022/11/08 11:33:29;;;;;;;7.13;2.28;;;;;;;20.74;42.71;100200.50;5020255;28;20217;-64
2022/11/08 11:36:04;;;;;;;5.40;2.80;;;;;;;20.31;43.90;100198.53;5019857;28;20240;-64
2022/11/08 11:38:45;;;;;;;5.80;2.42;;;;;;;19.92;44.92;100200.41;5011049;28;20271;-64
2022/11/08 11:41:18;;;;;;;8.10;3.00;;;;;;;19.86;45.30;100200.44;5011713;28;20205;-64
2022/11/08 11:43:53;;;;;;;5.10;2.50;;;;;;;19.55;46.23;100203.88;5015827;28;20226;-64
2022/11/08 11:46:27;;;;;;;5.47;2.60;;;;;;;19.14;46.84;100196.13;5018919;28;20704;-63
2022/11/08 11:49:00;;;;;;;6.70;2.90;;;;;;;18.67;48.19;100199.91;5014867;28;20216;-63
2022/11/08 11:51:30;;;;;;;8.00;2.53;;;;;;;18.31;49.24;100200.25;5011223;28;20973;-65
2022/11/08 11:54:07;;;;;;;6.77;2.83;;;;;;;17.97;50.13;100198.56;5012740;28;20324;-63
2022/11/08 11:56:45;;;;;;;5.20;2.20;;;;;;;17.75;51.23;100199.75;5014027;28;20209;-63